Weather History for KY19 - December, 2012

Change the Weather History Date:

Wednesday, December 12, 2012

  Actual Average (KBIS) Record (KBIS)
Temperature  
Mean Temperature 24 °F 17 °F  
Max Temperature 32 °F 27 °F 56 °F (1924)
Min Temperature 17 °F 7 °F -31 °F (1917)
Degree Days  
Heating Degree Days 40 48  
Month to date heating degree days 553  
Since 1 July heating degree days 2539  
Cooling Degree Days 0 0  
Month to date cooling degree days 0  
Year to date cooling degree days 520  
Moisture  
Dew Point 23 °F    
Average Humidity 94    
Maximum Humidity 100    
Minimum Humidity 80    
Precipitation  
Precipitation 6.51 in 0.01 in 0.23 in (1963)
Month to date precipitation 0.18  
Year to date precipitation 17.54  
Snow  
Snow 0.00 in 0.30 in 4.10 in (1983)
Month to date snowfall 3.3  
Since 1 July snowfall 14.5  
Snow Depth -    
Sea Level Pressure  
Sea Level Pressure 29.70 in    
Wind  
Wind Speed 8 mph (NE)    
Max Wind Speed 14 mph    
Max Gust Speed -    
Visibility 8 miles    
Events Snow    
T = Trace of Precipitation, MM = Missing Value Source: NWS Daily Summary

Daily Weather History Graph

Daily Weather History Graph

Search for Another Location

Airport or City:

Trip Planner

Search our weather history database for the weather conditions in past years. The results will help you decide how hot, cold, wet, or windy it might be!

Date:

Astronomy

Dec. 12, 2012 Rise Set
Actual Time 8:19 AM CST 4:55 PM CST
Civil Twilight 7:44 AM CST 5:30 PM CST
Nautical Twilight 7:06 AM CST 6:09 PM CST
Astronomical Twilight 6:29 AM CST 6:45 PM CST
Moon 7:24 AM CST (12/12) 4:35 PM CST (12/12)
Length of Visible Light 9h 45m
Length of Day
8h 35m
Waning Crescent, 1% of the Moon is Illuminated
Dec 12
Waning Crescent
Dec 13
New
Dec 19
First Quarter
Dec 28
Full
Jan 4
Last Quarter

Hourly Weather History & Observations

Time (CST) Temp. Windchill Dew Point Humidity Pressure Visibility Wind Dir Wind Speed Gust Speed Precip Events Conditions
12:15 AM 23.0 °F 12.4 °F 23.0 °F 100% 29.57 in 10.0 mi South 10.4 mph - N/A   Overcast
12:35 AM 23.0 °F 13.1 °F 23.0 °F 100% 29.57 in 10.0 mi South 9.2 mph - N/A   Overcast
12:55 AM 23.0 °F 13.1 °F 23.0 °F 100% 29.58 in 10.0 mi South 9.2 mph - N/A   Overcast
1:15 AM 24.8 °F 14.0 °F 23.0 °F 93% 29.57 in 10.0 mi South 11.5 mph - N/A   Overcast
1:35 AM 24.8 °F 16.9 °F 23.0 °F 93% 29.57 in 10.0 mi SE 6.9 mph - N/A   Overcast
1:55 AM 24.8 °F 14.6 °F 23.0 °F 93% 29.57 in 10.0 mi South 10.4 mph - N/A   Overcast
2:15 AM 26.6 °F 15.7 °F 23.0 °F 86% 29.56 in 10.0 mi South 12.7 mph - N/A   Overcast
2:35 AM 26.6 °F 15.2 °F 23.0 °F 86% 29.56 in 10.0 mi South 13.8 mph - N/A   Overcast
2:55 AM 26.6 °F 16.2 °F 24.8 °F 93% 29.56 in 10.0 mi South 11.5 mph - N/A   Overcast
3:15 AM 26.6 °F 19.1 °F 24.8 °F 93% 29.56 in 10.0 mi South 6.9 mph - N/A   Overcast
3:35 AM 26.6 °F 17.5 °F 24.8 °F 93% 29.56 in 10.0 mi South 9.2 mph - N/A   Overcast
3:55 AM 26.6 °F 16.8 °F 24.8 °F 93% 29.55 in 10.0 mi South 10.4 mph - N/A   Overcast
4:15 AM 26.6 °F 20.0 °F 24.8 °F 93% 29.56 in 10.0 mi SSE 5.8 mph - N/A   Overcast
4:35 AM 26.6 °F 16.8 °F 24.8 °F 93% 29.56 in 10.0 mi SSW 10.4 mph - N/A   Overcast
4:55 AM 26.6 °F 19.1 °F 24.8 °F 93% 29.57 in 10.0 mi SSW 6.9 mph - N/A   Overcast
5:15 AM 26.6 °F 20.0 °F 24.8 °F 93% 29.57 in 10.0 mi South 5.8 mph - N/A   Overcast
5:35 AM 26.6 °F 18.2 °F 24.8 °F 93% 29.57 in 10.0 mi SSW 8.1 mph - N/A   Overcast
5:55 AM 26.6 °F 19.1 °F 24.8 °F 93% 29.57 in 10.0 mi SW 6.9 mph - N/A   Overcast
6:15 AM 26.6 °F 20.0 °F 24.8 °F 93% 29.58 in 10.0 mi SW 5.8 mph - N/A   Overcast
6:35 AM 26.6 °F 22.6 °F 24.8 °F 93% 29.58 in 10.0 mi WSW 3.5 mph - N/A   Overcast
7:15 AM 24.8 °F 17.9 °F 23.0 °F 93% 29.60 in 10.0 mi SSW 5.8 mph - N/A   Overcast
7:35 AM 24.8 °F 16.1 °F 23.0 °F 93% 29.60 in 10.0 mi SSW 8.1 mph - N/A   Scattered Clouds
7:55 AM 23.0 °F 17.0 °F 23.0 °F 100% 29.62 in 10.0 mi SW 4.6 mph - N/A   Clear
8:15 AM 24.8 °F 19.1 °F 23.0 °F 93% 29.62 in 10.0 mi SSW 4.6 mph - N/A   Scattered Clouds
8:35 AM 24.8 °F 20.5 °F 23.0 °F 93% 29.62 in 10.0 mi SSW 3.5 mph - N/A   Partly Cloudy
8:55 AM 23.0 °F 15.8 °F 23.0 °F 100% 29.64 in 10.0 mi WSW 5.8 mph - N/A   Clear
9:15 AM 23.0 °F 17.0 °F 23.0 °F 100% 29.64 in 10.0 mi WSW 4.6 mph - N/A   Clear
9:35 AM 26.6 °F 22.6 °F 24.8 °F 93% 29.65 in 10.0 mi West 3.5 mph - N/A   Partly Cloudy
9:55 AM 26.6 °F 21.2 °F 24.8 °F 93% 29.66 in 10.0 mi West 4.6 mph - N/A   Partly Cloudy
10:15 AM 28.4 °F 24.6 °F 24.8 °F 86% 29.67 in 10.0 mi WNW 3.5 mph - N/A   Scattered Clouds
10:35 AM 32.0 °F - 26.6 °F 80% 29.69 in 10.0 mi Calm Calm - N/A   Scattered Clouds
10:55 AM 32.0 °F 28.7 °F 26.6 °F 80% 29.70 in 10.0 mi WNW 3.5 mph - N/A   Partly Cloudy
11:15 AM 32.0 °F 28.7 °F 26.6 °F 80% 29.71 in 10.0 mi West 3.5 mph - N/A   Mostly Cloudy
11:35 AM 32.0 °F 28.7 °F 26.6 °F 80% 29.71 in 10.0 mi WNW 3.5 mph - N/A   Mostly Cloudy
11:55 AM 32.0 °F 26.4 °F 26.6 °F 80% 29.71 in 10.0 mi North 5.8 mph - N/A   Overcast
12:15 PM 32.0 °F 27.5 °F 26.6 °F 80% 29.70 in 10.0 mi NNW 4.6 mph - N/A   Overcast
12:35 PM 32.0 °F 27.5 °F 26.6 °F 80% 29.70 in 10.0 mi NNW 4.6 mph - N/A   Overcast
12:55 PM 32.0 °F 26.4 °F 26.6 °F 80% 29.70 in 10.0 mi NNW 5.8 mph - N/A   Overcast
1:15 PM 30.2 °F 21.9 °F 26.6 °F 86% 29.71 in 10.0 mi North 9.2 mph - N/A   Overcast
1:35 PM 28.4 °F 21.2 °F 26.6 °F 93% 29.71 in 10.0 mi North 6.9 mph - N/A   Overcast
1:55 PM 28.4 °F 19.1 °F 26.6 °F 93% 29.71 in 10.0 mi North 10.4 mph - N/A   Overcast
2:15 PM 26.6 °F 16.8 °F 24.8 °F 93% 29.71 in 10.0 mi North 10.4 mph - N/A   Overcast
2:35 PM 26.6 °F 15.7 °F 24.8 °F 93% 29.71 in 10.0 mi North 12.7 mph - N/A   Overcast
2:55 PM 24.8 °F 14.0 °F 24.8 °F 100% 29.71 in 10.0 mi North 11.5 mph - N/A   Scattered Clouds
3:15 PM 24.8 °F 14.0 °F 23.0 °F 93% 29.72 in 10.0 mi North 11.5 mph - N/A   Clear
3:35 PM 24.8 °F 14.0 °F 23.0 °F 93% 29.73 in 9.0 mi North 11.5 mph - N/A   Partly Cloudy
3:55 PM 23.0 °F 11.7 °F 23.0 °F 100% 29.74 in 7.0 mi NNE 11.5 mph - N/A   Partly Cloudy
4:15 PM 23.0 °F 11.7 °F 23.0 °F 100% 29.75 in 8.0 mi NNE 11.5 mph - N/A   Mostly Cloudy
4:35 PM 23.0 °F 13.1 °F 23.0 °F 100% 29.75 in 7.0 mi NNE 9.2 mph - N/A   Mostly Cloudy
4:55 PM 23.0 °F 14.7 °F 23.0 °F 100% 29.76 in 8.0 mi NE 6.9 mph - N/A   Overcast
5:15 PM 23.0 °F 17.0 °F 23.0 °F 100% 29.78 in 9.0 mi NE 4.6 mph - N/A   Overcast
5:35 PM 23.0 °F 14.7 °F 23.0 °F 100% 29.79 in 9.0 mi NNE 6.9 mph - N/A   Overcast
6:15 PM 21.2 °F 12.6 °F 21.2 °F 100% 29.82 in 2.5 mi ENE 6.9 mph - 0.01 in Snow Light Snow
6:35 PM 21.2 °F 10.1 °F 21.2 °F 100% 29.81 in 1.8 mi NE 10.4 mph - 0.06 in Snow Light Snow
6:55 PM 19.4 °F 7.9 °F 19.4 °F 100% 29.81 in 1.5 mi NE 10.4 mph - 0.11 in Snow Light Snow
7:15 PM 19.4 °F 6.0 °F 19.4 °F 100% 29.81 in 1.5 mi NE 13.8 mph - 0.04 in Snow Light Snow
7:35 PM 19.4 °F 7.2 °F 19.4 °F 100% 29.82 in 2.0 mi ENE 11.5 mph - 0.09 in Snow Light Snow
7:55 PM 19.4 °F 7.9 °F 19.4 °F 100% 29.83 in 1.2 mi ENE 10.4 mph - 0.22 in Snow Light Snow
8:15 PM 19.4 °F 6.0 °F 19.4 °F 100% 29.82 in 0.8 mi ENE 13.8 mph - 0.22 in Snow Light Snow
8:35 PM 19.4 °F 9.5 °F 19.4 °F 100% 29.84 in 0.8 mi East 8.1 mph - 1.38 in Snow Light Snow
8:55 PM 19.4 °F 9.5 °F 19.4 °F 100% 29.85 in 1.0 mi ENE 8.1 mph - 3.03 in Snow Light Snow
9:15 PM 19.4 °F 10.4 °F 19.4 °F 100% 29.85 in 1.2 mi East 6.9 mph - 0.59 in Snow Light Snow
9:35 PM 19.4 °F 8.6 °F 19.4 °F 100% 29.85 in 1.0 mi ENE 9.2 mph - 1.53 in Snow Light Snow
9:55 PM 19.4 °F 11.5 °F 19.4 °F 100% 29.86 in 1.5 mi ENE 5.8 mph - 2.22 in Snow Light Snow
10:15 PM 19.4 °F 9.5 °F 19.4 °F 100% 29.87 in 2.0 mi ENE 8.1 mph - 0.18 in Snow Light Snow
10:35 PM 19.4 °F 10.4 °F 19.4 °F 100% 29.87 in 2.5 mi ENE 6.9 mph - 0.42 in Snow Light Snow
10:55 PM 17.6 °F 8.2 °F 17.6 °F 100% 29.88 in 2.5 mi NE 6.9 mph - 0.52 in Snow Light Snow
11:15 PM 17.6 °F 7.3 °F 17.6 °F 100% 29.88 in 2.0 mi NE 8.1 mph - 0.09 in Snow Light Snow
11:35 PM 17.6 °F 6.4 °F 17.6 °F 100% 29.89 in 2.0 mi NE 9.2 mph - 0.24 in Snow Light Snow
11:55 PM 17.6 °F 7.3 °F 17.6 °F 100% 29.89 in 2.0 mi NNE 8.1 mph - 0.41 in Snow Light Snow